Time;durP1;ratioP1;P1;durP2;ratioP2;P2;SDS_P1;SDS_P2;PMS_P1;PMS_P2;Temp;Humidity;BMP_temperature;BMP_pressure;BME280_temperature;BME280_humidity;BME280_pressure;Samples;Min_cycle;Max_cycle;Signal;HPM_P1;HPM_P2
2022/07/16 00:02:40;;;;;;;5.03;3.70;;;;;;;17.96;64.77;101313.44;5057825;28;20554;-68
2022/07/16 00:05:06;;;;;;;4.00;3.60;;;;;;;17.85;64.49;101326.72;5057640;28;20428;-67
2022/07/16 00:07:32;;;;;;;5.37;3.57;;;;;;;17.57;65.90;101313.84;5057618;28;20480;-71
2022/07/16 00:09:58;;;;;;;3.60;3.30;;;;;;;17.77;65.89;101313.63;5057678;28;20551;-68
2022/07/16 00:12:24;;;;;;;4.17;3.77;;;;;;;17.63;66.53;101312.88;5059357;28;20176;-68
2022/07/16 00:14:50;;;;;;;4.23;3.80;;;;;;;17.51;66.84;101317.41;5057806;28;20427;-67
2022/07/16 00:17:15;;;;;;;4.10;3.70;;;;;;;17.86;66.35;101310.03;5057616;28;20424;-67
2022/07/16 00:19:40;;;;;;;3.93;3.53;;;;;;;17.48;67.48;101321.81;5058203;28;20166;-67
2022/07/16 00:22:06;;;;;;;4.60;3.83;;;;;;;17.10;68.28;101313.41;5057642;28;20173;-69
2022/07/16 00:24:31;;;;;;;5.77;3.70;;;;;;;17.16;69.20;101315.97;5057500;28;20189;-68
2022/07/16 00:26:56;;;;;;;7.00;4.23;;;;;;;17.01;70.16;101310.84;5058063;28;20170;-67
2022/07/16 00:29:22;;;;;;;5.40;4.10;;;;;;;16.87;71.79;101320.56;5057661;28;20561;-67
2022/07/16 00:31:49;;;;;;;10.93;4.40;;;;;;;16.62;73.60;101318.09;5059336;28;20224;-68
2022/07/16 00:34:15;;;;;;;4.70;4.30;;;;;;;16.55;73.67;101312.00;5061688;28;20190;-69
2022/07/16 00:36:41;;;;;;;7.13;4.57;;;;;;;16.77;73.24;101304.81;5061441;28;20454;-68
2022/07/16 00:39:08;;;;;;;4.83;4.43;;;;;;;16.62;73.25;101305.81;5061285;28;20415;-68
2022/07/16 00:41:35;;;;;;;5.80;5.00;;;;;;;16.73;73.21;101300.47;5061938;28;20173;-67
2022/07/16 00:44:06;;;;;;;4.67;4.17;;;;;;;16.52;73.56;101297.97;5061481;28;20464;-68
2022/07/16 00:46:31;;;;;;;6.00;5.40;;;;;;;16.68;73.29;101283.81;5061216;28;20420;-68
2022/07/16 00:48:57;;;;;;;6.93;4.80;;;;;;;16.73;73.22;101276.75;5061449;28;20418;-67
2022/07/16 00:51:27;;;;;;;5.93;5.43;;;;;;;16.55;73.99;101282.16;5061334;28;20173;-68
2022/07/16 00:53:53;;;;;;;7.17;5.60;;;;;;;16.61;74.85;101280.34;5060891;28;20876;-68
2022/07/16 00:56:18;;;;;;;6.70;5.13;;;;;;;16.66;74.16;101267.19;5061552;28;20416;-69
2022/07/16 00:58:45;;;;;;;5.60;5.00;;;;;;;16.64;74.65;101275.09;5061340;28;20420;-69
2022/07/16 01:01:11;;;;;;;5.90;5.23;;;;;;;16.66;74.50;101261.91;5060892;28;20173;-67
2022/07/16 01:03:37;;;;;;;5.30;4.90;;;;;;;16.48;74.22;101274.31;5061585;28;20513;-68
2022/07/16 01:06:03;;;;;;;5.57;5.07;;;;;;;16.40;75.18;101260.31;5060780;28;20246;-70
2022/07/16 01:08:29;;;;;;;5.10;4.63;;;;;;;16.52;74.58;101259.38;5060761;28;20470;-67
2022/07/16 01:10:55;;;;;;;5.53;5.03;;;;;;;16.47;74.81;101254.13;5062811;28;20383;-68
2022/07/16 01:13:21;;;;;;;5.33;4.87;;;;;;;16.54;75.18;101251.47;5060653;28;20184;-67
2022/07/16 01:15:47;;;;;;;6.23;4.97;;;;;;;16.37;75.99;101251.56;5053711;28;20439;-67
2022/07/16 01:18:13;;;;;;;7.77;5.10;;;;;;;16.21;76.44;101248.16;5044408;28;20660;-67
2022/07/16 01:20:38;;;;;;;7.10;5.60;;;;;;;16.23;76.16;101243.78;5054220;28;20185;-67
2022/07/16 01:23:05;;;;;;;6.13;5.57;;;;;;;16.08;77.27;101248.22;5052964;28;20563;-66
2022/07/16 01:25:30;;;;;;;6.10;5.60;;;;;;;16.07;76.91;101246.47;5039205;28;20506;-67
2022/07/16 01:27:56;;;;;;;7.17;6.03;;;;;;;16.17;77.79;101242.91;5059572;28;20390;-68
2022/07/16 01:30:21;;;;;;;6.13;5.50;;;;;;;16.38;77.34;101233.13;5055745;28;20228;-67
2022/07/16 01:32:47;;;;;;;7.07;6.37;;;;;;;16.19;77.82;101244.66;5045464;28;20182;-69
2022/07/16 01:35:12;;;;;;;7.10;5.30;;;;;;;16.41;77.25;101243.66;5044146;28;20233;-68
2022/07/16 01:37:38;;;;;;;6.97;6.23;;;;;;;16.42;77.26;101240.13;5048764;28;20212;-68
2022/07/16 01:40:04;;;;;;;7.40;5.80;;;;;;;16.53;77.54;101228.66;5044222;28;20536;-67
2022/07/16 01:42:29;;;;;;;6.63;6.03;;;;;;;16.46;77.95;101241.00;5050517;28;20182;-67
2022/07/16 01:44:55;;;;;;;7.20;6.40;;;;;;;16.63;77.59;101230.34;5047184;28;20485;-67
2022/07/16 01:47:20;;;;;;;7.07;6.40;;;;;;;16.10;78.18;101228.06;5052303;28;20186;-68
2022/07/16 01:49:46;;;;;;;7.10;6.40;;;;;;;16.45;78.12;101237.50;5053838;28;20201;-68
2022/07/16 01:52:15;;;;;;;8.30;6.53;;;;;;;16.28;78.82;101229.69;5059771;28;20178;-67
2022/07/16 01:54:43;;;;;;;10.10;6.20;;;;;;;16.40;78.31;101228.75;5057105;28;20236;-68
2022/07/16 01:57:08;;;;;;;6.70;6.10;;;;;;;16.40;78.51;101215.59;5060128;28;20416;-68
2022/07/16 01:59:34;;;;;;;6.73;6.13;;;;;;;16.33;77.90;101221.75;5060200;28;20455;-68
2022/07/16 02:01:59;;;;;;;7.53;6.77;;;;;;;16.29;78.39;101223.56;5059600;28;20295;-68
2022/07/16 02:04:24;;;;;;;6.23;5.73;;;;;;;16.18;78.69;101214.84;5059521;28;20217;-67
2022/07/16 02:06:50;;;;;;;6.60;6.00;;;;;;;16.20;78.16;101212.22;5060131;28;20211;-67
2022/07/16 02:09:15;;;;;;;6.70;6.10;;;;;;;16.05;78.41;101215.78;5059619;28;20224;-68
2022/07/16 02:11:41;;;;;;;6.93;6.10;;;;;;;16.14;78.53;101213.13;5059702;28;20201;-69
2022/07/16 02:14:06;;;;;;;7.23;6.30;;;;;;;16.05;79.08;101215.78;5060047;28;20535;-69
2022/07/16 02:16:31;;;;;;;8.00;7.23;;;;;;;16.04;78.67;101208.81;5060085;28;20228;-68
2022/07/16 02:18:57;;;;;;;6.43;5.93;;;;;;;16.32;78.47;101209.50;5059553;28;20536;-68
2022/07/16 02:21:22;;;;;;;7.10;6.27;;;;;;;16.55;77.44;101197.91;5059165;28;20208;-68
2022/07/16 02:23:47;;;;;;;7.30;6.23;;;;;;;16.29;77.47;101189.34;5059232;28;20189;-67
2022/07/16 02:26:13;;;;;;;7.07;6.20;;;;;;;15.76;80.12;101203.63;5059356;28;20173;-68
2022/07/16 02:28:38;;;;;;;6.10;5.60;;;;;;;15.76;80.29;101215.03;5059439;28;20194;-68
2022/07/16 02:31:04;;;;;;;7.70;7.00;;;;;;;15.70;81.41;101212.44;5059406;28;20169;-68
2022/07/16 02:33:29;;;;;;;6.37;5.80;;;;;;;16.02;80.48;101226.34;5059258;28;20181;-68
2022/07/16 02:35:54;;;;;;;6.20;5.70;;;;;;;15.95;81.86;101226.38;5059626;28;20165;-68
2022/07/16 02:38:20;;;;;;;6.83;6.13;;;;;;;16.35;80.18;101217.38;5059221;28;20434;-67
2022/07/16 02:40:45;;;;;;;6.50;5.97;;;;;;;16.61;79.41;101225.06;5059131;28;20207;-68
2022/07/16 02:43:11;;;;;;;6.53;6.00;;;;;;;16.64;79.49;101232.97;5058986;28;20176;-68
2022/07/16 02:45:38;;;;;;;6.10;5.50;;;;;;;16.52;79.47;101238.31;5058939;28;20169;-67
2022/07/16 02:48:04;;;;;;;6.37;5.70;;;;;;;16.54;80.07;101235.69;5058873;28;20454;-68
2022/07/16 02:50:30;;;;;;;5.90;5.40;;;;;;;16.58;79.41;101232.13;5059693;28;20454;-67
2022/07/16 02:52:56;;;;;;;5.60;5.20;;;;;;;16.41;79.79;101238.41;5061195;28;20782;-67
2022/07/16 02:55:22;;;;;;;6.43;5.83;;;;;;;16.74;79.67;101238.16;5058074;28;20540;-67
2022/07/16 02:57:47;;;;;;;5.60;5.20;;;;;;;16.23;80.73;101241.13;5059275;28;20390;-68
2022/07/16 03:00:14;;;;;;;7.13;5.40;;;;;;;16.57;80.12;101243.53;5058699;28;20174;-67
2022/07/16 03:02:40;;;;;;;6.50;4.63;;;;;;;16.77;78.70;101246.03;5058885;28;20192;-67
2022/07/16 03:05:07;;;;;;;5.13;4.73;;;;;;;16.56;78.66;101245.31;5059034;28;20387;-68
2022/07/16 03:07:32;;;;;;;5.10;4.70;;;;;;;16.98;77.34;101245.88;5058530;28;20171;-67
2022/07/16 03:09:57;;;;;;;5.93;5.43;;;;;;;16.67;78.40;101245.25;5058482;28;20869;-67
2022/07/16 03:12:23;;;;;;;5.00;4.50;;;;;;;16.98;78.04;101252.91;5059052;28;20173;-68
2022/07/16 03:14:49;;;;;;;5.73;5.23;;;;;;;16.99;77.56;101259.91;5058391;28;20196;-68
2022/07/16 03:17:14;;;;;;;5.47;4.97;;;;;;;17.05;77.36;101254.59;5058610;28;20592;-68
2022/07/16 03:19:40;;;;;;;5.73;4.90;;;;;;;16.84;77.92;101251.25;5058863;28;20173;-68
2022/07/16 03:22:05;;;;;;;5.20;4.70;;;;;;;16.98;77.85;101258.16;5058323;28;20197;-68
2022/07/16 03:24:31;;;;;;;4.43;4.03;;;;;;;16.89;77.48;101259.13;5058204;28;20174;-68
2022/07/16 03:26:56;;;;;;;5.80;5.00;;;;;;;17.46;75.66;101255.94;5058572;28;20174;-68
2022/07/16 03:29:22;;;;;;;5.43;4.93;;;;;;;16.98;77.39;101268.69;5058178;28;20524;-69
2022/07/16 03:31:47;;;;;;;5.33;4.40;;;;;;;16.83;76.55;101274.94;5058242;28;20612;-69
2022/07/16 03:34:12;;;;;;;7.00;4.70;;;;;;;17.07;76.79;101273.03;5058451;28;20169;-69
2022/07/16 03:36:38;;;;;;;6.17;4.50;;;;;;;16.95;76.53;101279.28;5058160;28;20498;-68
2022/07/16 03:39:06;;;;;;;5.20;4.60;;;;;;;17.08;76.27;101280.91;5058136;28;20174;-68
2022/07/16 03:41:34;;;;;;;8.40;4.60;;;;;;;17.13;75.92;101284.38;5058395;28;20569;-68
2022/07/16 03:44:00;;;;;;;6.23;4.37;;;;;;;16.86;76.66;101285.47;5057900;28;20412;-68
2022/07/16 03:46:26;;;;;;;4.93;4.43;;;;;;;16.87;76.66;101279.28;5058017;28;20694;-68
2022/07/16 03:48:51;;;;;;;6.47;4.60;;;;;;;17.17;75.11;101291.38;5058479;28;20517;-68
2022/07/16 03:51:17;;;;;;;5.00;4.50;;;;;;;17.10;75.47;101291.44;5058049;28;20399;-67
2022/07/16 03:53:42;;;;;;;8.33;4.37;;;;;;;17.05;74.76;101301.13;5057728;28;20300;-68
2022/07/16 03:56:08;;;;;;;5.30;4.30;;;;;;;17.53;73.71;101292.81;5057378;28;20438;-68
2022/07/16 03:58:34;;;;;;;5.90;3.90;;;;;;;17.99;71.49;101297.59;5057850;28;20450;-67
2022/07/16 04:00:59;;;;;;;5.60;4.20;;;;;;;17.64;72.07;101294.44;5057976;28;20189;-67
2022/07/16 04:03:24;;;;;;;4.37;3.97;;;;;;;17.14;73.27;101304.59;5058319;28;20172;-67
2022/07/16 04:05:50;;;;;;;4.93;3.80;;;;;;;17.03;74.07;101298.50;5058037;28;20220;-67
2022/07/16 04:08:16;;;;;;;4.83;3.87;;;;;;;17.21;74.22;101307.16;5061719;28;20170;-68
2022/07/16 04:10:42;;;;;;;7.63;4.17;;;;;;;17.09;74.30;101310.75;5062403;28;20178;-67
2022/07/16 04:13:07;;;;;;;4.00;3.60;;;;;;;17.04;74.14;101318.72;5061891;28;20694;-68
2022/07/16 04:15:32;;;;;;;4.20;3.80;;;;;;;17.21;73.62;101315.06;5061724;28;20180;-69
2022/07/16 04:17:58;;;;;;;4.77;3.80;;;;;;;17.13;73.78;101312.47;5063085;28;20520;-68
2022/07/16 04:20:23;;;;;;;5.63;3.70;;;;;;;17.08;74.66;101325.69;5062128;28;20211;-68
2022/07/16 04:22:49;;;;;;;5.03;3.47;;;;;;;17.26;73.27;101322.03;5061670;28;20174;-68
2022/07/16 04:25:15;;;;;;;4.13;3.73;;;;;;;18.17;69.38;101323.75;5061879;28;20435;-67
2022/07/16 04:27:42;;;;;;;4.53;3.50;;;;;;;17.34;71.62;101325.47;5060943;28;20542;-67
2022/07/16 04:30:08;;;;;;;7.90;4.83;;;;;;;17.70;70.42;101322.50;5061627;28;20294;-67
2022/07/16 04:32:35;;;;;;;4.20;3.80;;;;;;;18.68;67.87;101324.81;5061805;28;20413;-67
2022/07/16 04:35:00;;;;;;;4.13;3.20;;;;;;;20.19;62.56;101313.38;5061549;28;20408;-68
2022/07/16 04:37:25;;;;;;;3.50;3.20;;;;;;;20.40;60.43;101316.47;5060776;28;20412;-68
2022/07/16 04:39:51;;;;;;;3.47;3.10;;;;;;;21.91;55.46;101315.38;5063056;28;20401;-68
2022/07/16 04:42:17;;;;;;;4.93;3.00;;;;;;;21.69;56.79;101315.97;5061652;28;20173;-68
2022/07/16 04:44:42;;;;;;;4.30;3.27;;;;;;;21.65;55.25;101318.72;5061391;28;20514;-67
2022/07/16 04:47:08;;;;;;;6.27;3.10;;;;;;;20.29;59.26;101327.28;5061518;28;20174;-68
2022/07/16 04:49:33;;;;;;;3.47;3.17;;;;;;;20.79;57.74;101333.25;5061168;28;20209;-68
2022/07/16 04:51:58;;;;;;;4.33;2.70;;;;;;;19.62;61.44;101343.56;5061215;28;20181;-68
2022/07/16 04:54:24;;;;;;;3.60;3.10;;;;;;;19.29;62.66;101343.25;5060788;28;20271;-68
2022/07/16 04:56:49;;;;;;;3.83;3.00;;;;;;;18.44;65.17;101348.03;5061128;28;20208;-68
2022/07/16 04:59:15;;;;;;;4.80;3.33;;;;;;;18.77;64.28;101356.38;5061113;28;20467;-68
2022/07/16 05:01:40;;;;;;;3.73;3.23;;;;;;;18.49;65.57;101351.47;5060825;28;20180;-69
2022/07/16 05:04:06;;;;;;;4.83;3.60;;;;;;;18.13;67.45;101358.97;5060793;28;20223;-68
2022/07/16 05:06:31;;;;;;;4.20;3.30;;;;;;;17.85;68.44;101356.59;5061314;28;20169;-68
2022/07/16 05:08:57;;;;;;;3.80;3.30;;;;;;;17.47;69.60;101360.50;5060729;28;20197;-68
2022/07/16 05:11:22;;;;;;;6.70;4.00;;;;;;;17.68;69.71;101363.81;5062003;28;20188;-68
2022/07/16 05:13:48;;;;;;;7.53;4.87;;;;;;;18.10;68.30;101366.03;5060989;28;20173;-68
2022/07/16 05:16:13;;;;;;;4.30;3.60;;;;;;;17.84;68.44;101368.03;5060800;28;20527;-69
2022/07/16 05:18:38;;;;;;;6.37;3.70;;;;;;;17.93;69.03;101374.16;5060049;28;20192;-68
2022/07/16 05:21:04;;;;;;;5.80;3.80;;;;;;;17.67;69.92;101378.78;5061208;28;20223;-68
2022/07/16 05:23:29;;;;;;;5.53;3.80;;;;;;;17.81;68.52;101378.63;5060231;28;20256;-68
2022/07/16 05:25:55;;;;;;;6.60;3.67;;;;;;;17.87;68.74;101374.19;5060491;28;20192;-68
2022/07/16 05:28:20;;;;;;;4.20;3.73;;;;;;;17.84;68.57;101389.13;5060736;28;20174;-68
2022/07/16 05:30:45;;;;;;;6.07;3.47;;;;;;;17.68;68.95;101382.28;5060478;28;20187;-68
2022/07/16 05:33:11;;;;;;;10.23;4.60;;;;;;;18.07;67.91;101385.41;5060123;28;20195;-68
2022/07/16 05:35:36;;;;;;;5.80;4.17;;;;;;;17.93;68.00;101387.38;5060875;28;20161;-68
2022/07/16 05:38:01;;;;;;;5.27;3.67;;;;;;;18.17;67.16;101396.75;5059604;28;20569;-70
2022/07/16 05:40:27;;;;;;;5.90;3.70;;;;;;;17.98;67.17;101396.06;5060338;28;20429;-69
2022/07/16 05:42:52;;;;;;;4.00;3.40;;;;;;;17.70;66.97;101393.69;5060572;28;20197;-68
2022/07/16 05:45:18;;;;;;;5.60;3.60;;;;;;;17.87;66.43;101401.44;5060158;28;20534;-69
2022/07/16 05:47:43;;;;;;;4.60;3.40;;;;;;;18.09;64.87;101403.88;5060123;28;20169;-67
2022/07/16 05:50:09;;;;;;;9.20;3.30;;;;;;;18.95;61.71;101409.88;5060253;28;20200;-68
2022/07/16 05:52:34;;;;;;;4.13;2.83;;;;;;;18.08;62.02;101415.34;5059982;28;20176;-68
2022/07/16 05:55:00;;;;;;;3.63;2.90;;;;;;;18.37;60.85;101411.50;5059767;28;20287;-70
2022/07/16 05:57:25;;;;;;;4.67;3.13;;;;;;;18.10;61.24;101417.03;5060498;28;20181;-69
2022/07/16 05:59:51;;;;;;;4.07;3.00;;;;;;;17.84;61.89;101415.53;5059998;28;20181;-69
2022/07/16 06:02:16;;;;;;;5.07;3.20;;;;;;;18.02;61.70;101418.91;5059938;28;20181;-70
2022/07/16 06:04:41;;;;;;;5.80;2.90;;;;;;;19.83;57.44;101414.63;5059956;28;20194;-68
2022/07/16 06:07:07;;;;;;;4.00;2.53;;;;;;;20.48;53.06;101423.97;5059591;28;20230;-69
2022/07/16 06:09:32;;;;;;;2.70;2.50;;;;;;;19.76;54.71;101420.91;5059441;28;20284;-69
2022/07/16 06:11:57;;;;;;;3.30;2.73;;;;;;;19.05;56.46;101431.75;5060205;28;20165;-70
2022/07/16 06:14:23;;;;;;;4.73;2.53;;;;;;;19.12;56.21;101436.94;5059480;28;20181;-70
2022/07/16 06:16:48;;;;;;;3.97;2.80;;;;;;;18.36;57.93;101450.22;5059591;28;20182;-71
2022/07/16 06:19:14;;;;;;;12.97;3.20;;;;;;;18.66;58.07;101448.09;5059971;28;20219;-70
2022/07/16 06:21:39;;;;;;;5.13;2.70;;;;;;;18.64;57.36;101445.44;5060269;28;20181;-70
2022/07/16 06:24:05;;;;;;;3.83;2.90;;;;;;;18.84;56.67;101450.47;5059489;28;20177;-70
2022/07/16 06:26:30;;;;;;;3.27;2.60;;;;;;;20.57;52.21;101443.25;5060052;28;20256;-71
2022/07/16 06:28:55;;;;;;;5.67;2.30;;;;;;;23.26;45.95;101437.13;5058142;28;20201;-71
2022/07/16 06:31:21;;;;;;;4.33;2.57;;;;;;;23.74;45.29;101434.69;5059129;28;20458;-71
2022/07/16 06:33:46;;;;;;;4.03;2.73;;;;;;;23.80;44.11;101437.09;5059369;28;20188;-70
2022/07/16 06:36:11;;;;;;;2.63;2.20;;;;;;;24.15;43.18;101441.25;5059099;28;20550;-71
2022/07/16 06:38:37;;;;;;;4.87;2.70;;;;;;;22.61;45.47;101444.41;5058981;28;20243;-71
2022/07/16 06:41:02;;;;;;;4.53;2.40;;;;;;;22.26;46.71;101456.88;5059208;28;20249;-72
2022/07/16 06:43:28;;;;;;;5.67;2.90;;;;;;;22.00;47.68;101446.97;5058647;28;20178;-70
2022/07/16 06:45:53;;;;;;;4.03;2.40;;;;;;;24.80;41.25;101451.28;5058760;28;20546;-72
2022/07/16 06:48:18;;;;;;;4.20;2.50;;;;;;;24.83;40.59;101454.72;5059340;28;20165;-72
2022/07/16 06:50:44;;;;;;;3.90;2.27;;;;;;;26.18;37.91;101458.09;5058915;28;20515;-72
2022/07/16 06:53:09;;;;;;;5.07;2.90;;;;;;;24.95;39.81;101465.84;5058465;28;20231;-72
2022/07/16 06:55:35;;;;;;;9.27;2.80;;;;;;;24.75;41.15;101459.50;5058979;28;20523;-72
2022/07/16 06:58:00;;;;;;;4.50;2.60;;;;;;;23.28;43.16;101471.66;5058667;28;20173;-72
2022/07/16 07:00:25;;;;;;;3.90;2.40;;;;;;;22.41;43.71;101479.53;5058642;28;20170;-73
2022/07/16 07:02:51;;;;;;;8.73;3.00;;;;;;;22.15;43.58;101473.13;5059073;28;20170;-73
2022/07/16 07:05:16;;;;;;;5.90;2.77;;;;;;;24.63;38.58;101468.81;5058188;28;20222;-75
2022/07/16 07:07:42;;;;;;;4.40;2.80;;;;;;;25.32;37.03;101469.72;5058424;28;20181;-73
2022/07/16 07:10:07;;;;;;;5.63;2.60;;;;;;;25.51;37.00;101470.72;5058895;28;20229;-70
2022/07/16 07:12:33;;;;;;;6.17;2.90;;;;;;;25.40;37.31;101480.97;5058263;28;20188;-70
2022/07/16 07:14:59;;;;;;;2.80;2.47;;;;;;;26.28;35.24;101473.72;5058152;28;20161;-71
2022/07/16 07:17:24;;;;;;;11.30;2.80;;;;;;;25.89;35.66;101476.22;5058667;28;20197;-71
2022/07/16 07:19:49;;;;;;;6.53;2.57;;;;;;;24.66;37.54;101481.16;5058347;28;20203;-71
2022/07/16 07:22:15;;;;;;;6.53;2.70;;;;;;;23.48;40.01;101479.88;5058192;28;20457;-72
2022/07/16 07:24:40;;;;;;;4.93;2.67;;;;;;;22.35;41.51;101496.53;5058446;28;20181;-71
2022/07/16 07:27:06;;;;;;;5.83;2.70;;;;;;;22.31;42.36;101496.59;5058214;28;20178;-71
2022/07/16 07:29:31;;;;;;;5.00;2.70;;;;;;;22.56;41.75;101506.59;5058080;28;20209;-72
2022/07/16 07:31:56;;;;;;;5.00;2.67;;;;;;;22.26;41.87;101501.16;5058268;28;20440;-71
2022/07/16 07:34:22;;;;;;;6.40;2.70;;;;;;;21.43;43.38;101510.25;5057842;28;20189;-72
2022/07/16 07:36:48;;;;;;;6.17;3.07;;;;;;;21.11;44.56;101525.16;5057932;28;20185;-71
2022/07/16 07:39:13;;;;;;;8.70;3.80;;;;;;;20.13;47.00;101512.03;5058555;28;20248;-70
2022/07/16 07:41:41;;;;;;;5.10;2.70;;;;;;;19.80;47.93;101525.81;5052385;28;20180;-72
2022/07/16 07:44:07;;;;;;;6.63;3.10;;;;;;;20.77;46.21;101517.03;5047588;28;20310;-71
2022/07/16 07:46:32;;;;;;;7.00;2.80;;;;;;;23.05;40.96;101519.28;5039442;28;20444;-70
2022/07/16 07:48:58;;;;;;;3.50;2.70;;;;;;;24.32;37.89;101517.03;5044860;28;20237;-70
2022/07/16 07:51:24;;;;;;;4.63;2.60;;;;;;;25.15;36.72;101508.59;5058021;28;20181;-69
2022/07/16 07:53:49;;;;;;;3.90;2.43;;;;;;;26.31;34.09;101505.66;5049191;28;20625;-69
2022/07/16 07:56:15;;;;;;;3.17;2.40;;;;;;;26.35;34.32;101505.44;5067588;28;20493;-70
2022/07/16 07:58:40;;;;;;;5.10;3.30;;;;;;;25.59;35.45;101521.13;5054485;28;20293;-67
2022/07/16 08:01:06;;;;;;;7.33;2.70;;;;;;;23.76;38.68;101534.88;5062627;28;20584;-68
2022/07/16 08:03:31;;;;;;;4.73;3.33;;;;;;;24.35;37.03;101522.25;5045236;28;20558;-69
2022/07/16 08:05:57;;;;;;;4.83;2.80;;;;;;;23.62;38.27;101529.97;5059853;28;20228;-70
2022/07/16 08:08:23;;;;;;;4.03;2.43;;;;;;;25.39;34.16;101524.59;5071115;28;20264;-67
2022/07/16 08:10:48;;;;;;;6.53;2.70;;;;;;;26.19;32.77;101531.97;5036725;28;20225;-70
2022/07/16 08:13:14;;;;;;;4.33;2.50;;;;;;;26.28;32.25;101521.84;5048761;28;20420;-69
2022/07/16 08:15:39;;;;;;;4.27;2.67;;;;;;;28.01;29.37;101522.63;5066121;28;20177;-69
2022/07/16 08:18:05;;;;;;;5.00;2.60;;;;;;;26.98;30.52;101528.50;5069551;28;20187;-70
2022/07/16 08:20:30;;;;;;;4.43;2.80;;;;;;;28.30;29.13;101528.28;5061823;28;20177;-70
2022/07/16 08:22:56;;;;;;;3.63;2.17;;;;;;;27.89;29.01;101523.22;5073027;28;20266;-70
2022/07/16 08:28:06;;;;;;;3.93;2.53;;;;;;;24.96;33.44;101547.59;5061985;28;20273;-69
2022/07/16 08:30:31;;;;;;;4.20;2.70;;;;;;;25.80;32.98;101543.41;5068254;28;20553;-68
2022/07/16 08:32:56;;;;;;;4.27;2.70;;;;;;;26.33;30.49;101550.09;5061372;28;20184;-68
2022/07/16 08:35:22;;;;;;;3.93;2.40;;;;;;;26.67;29.72;101548.59;5071037;28;20546;-71
2022/07/16 08:37:47;;;;;;;4.90;2.57;;;;;;;27.37;27.92;101540.06;5066896;28;20206;-70
2022/07/16 08:40:16;;;;;;;6.03;2.53;;;;;;;26.96;28.59;101540.19;5059826;28;20174;-71
2022/07/16 08:42:41;;;;;;;5.33;2.40;;;;;;;27.99;27.31;101539.69;5065546;28;20221;-67
2022/07/16 08:45:08;;;;;;;7.63;2.63;;;;;;;26.80;28.25;101546.25;5068827;28;20446;-70
2022/07/16 08:47:34;;;;;;;5.50;2.40;;;;;;;26.20;29.49;101552.44;5070623;28;20181;-69
2022/07/16 08:50:08;;;;;;;3.50;2.90;;;;;;;28.01;26.65;101532.47;5075331;28;20578;-69
2022/07/16 08:52:37;;;;;;;4.50;2.90;;;;;;;27.49;28.20;101531.44;5061984;28;20692;-70
2022/07/16 08:55:03;;;;;;;6.77;2.97;;;;;;;25.14;30.83;101552.25;5042576;28;20547;-69
2022/07/16 08:57:28;;;;;;;4.33;2.57;;;;;;;24.63;31.74;101566.59;5059182;28;20570;-69
2022/07/16 08:59:54;;;;;;;5.30;3.87;;;;;;;23.79;33.41;101569.38;5043465;28;20196;-69
2022/07/16 09:02:20;;;;;;;3.97;2.80;;;;;;;22.60;36.69;101570.22;5042137;28;20162;-67
2022/07/16 09:04:46;;;;;;;5.27;2.50;;;;;;;21.97;38.38;101590.41;5051087;28;20263;-69
2022/07/16 09:07:18;;;;;;;5.63;2.63;;;;;;;21.84;38.30;101589.84;5055042;28;20184;-67
2022/07/16 09:09:46;;;;;;;5.80;3.80;;;;;;;23.27;36.56;101592.28;5059179;28;20853;-67
2022/07/16 09:12:33;;;;;;;5.57;2.33;;;;;;;24.01;34.34;101590.00;5059463;28;20424;-68
2022/07/16 09:14:58;;;;;;;4.10;2.97;;;;;;;26.28;31.58;101596.69;5040188;28;20409;-68
2022/07/16 09:17:24;;;;;;;4.40;2.70;;;;;;;26.01;32.19;101596.88;5057448;28;20813;-69
2022/07/16 09:19:49;;;;;;;6.40;3.80;;;;;;;26.41;30.91;101597.00;5059567;28;20169;-68
2022/07/16 09:22:15;;;;;;;5.27;2.50;;;;;;;25.81;31.36;101590.53;5055073;28;20178;-70
2022/07/16 09:24:45;;;;;;;4.00;2.50;;;;;;;26.22;30.62;101598.69;5047381;28;20296;-70
2022/07/16 09:27:15;;;;;;;7.17;3.00;;;;;;;27.61;29.13;101596.06;5053380;28;20714;-69
2022/07/16 09:29:54;;;;;;;4.83;2.60;;;;;;;26.81;30.27;101598.81;5043800;28;20468;-69
2022/07/16 09:32:34;;;;;;;4.40;2.80;;;;;;;26.46;30.80;101605.72;5040446;28;21136;-68
2022/07/16 09:35:11;;;;;;;4.73;3.00;;;;;;;26.91;30.92;101601.09;5040374;28;20459;-70
2022/07/16 09:37:57;;;;;;;2.70;2.40;;;;;;;26.85;30.85;101599.56;5041256;28;20468;-70
2022/07/16 09:40:43;;;;;;;4.47;2.57;;;;;;;26.93;31.14;101610.78;5041349;28;20440;-70
2022/07/16 09:43:12;;;;;;;4.53;2.80;;;;;;;28.32;28.91;101595.22;5049083;28;20442;-69
2022/07/16 09:45:41;;;;;;;3.03;2.57;;;;;;;28.15;30.77;101607.69;5042513;28;20672;-69
2022/07/16 09:48:24;;;;;;;8.00;3.00;;;;;;;26.80;31.39;101598.91;5044210;28;20435;-67
2022/07/16 09:50:51;;;;;;;6.30;2.80;;;;;;;25.17;34.65;101610.81;5058989;28;20422;-69
2022/07/16 09:53:21;;;;;;;9.17;2.63;;;;;;;24.20;36.84;101617.75;5067357;28;20474;-68
2022/07/16 09:55:53;;;;;;;4.10;2.40;;;;;;;23.63;37.14;101637.34;5059909;28;20426;-69
2022/07/16 09:58:19;;;;;;;4.63;2.67;;;;;;;24.10;36.47;101627.00;5059904;28;20738;-68
2022/07/16 10:00:45;;;;;;;4.87;2.87;;;;;;;22.64;39.80;101640.13;5059743;28;20437;-68
2022/07/16 10:03:11;;;;;;;4.73;2.83;;;;;;;22.02;41.05;101647.81;5058824;28;20256;-69
2022/07/16 10:05:36;;;;;;;3.90;2.60;;;;;;;21.88;40.59;101655.25;5056899;28;20543;-71
2022/07/16 10:08:02;;;;;;;9.70;3.10;;;;;;;21.60;42.25;101662.94;5039555;28;20260;-67
2022/07/16 10:10:27;;;;;;;7.30;2.90;;;;;;;22.10;42.05;101670.66;5038816;28;20219;-66
2022/07/16 10:12:53;;;;;;;7.60;3.03;;;;;;;20.93;42.45;101672.22;5044886;28;20416;-68
2022/07/16 10:15:20;;;;;;;10.33;3.20;;;;;;;21.38;42.53;101671.31;5059384;28;20173;-67
2022/07/16 10:17:45;;;;;;;4.87;3.40;;;;;;;21.91;42.08;101675.53;5057936;28;20296;-66
2022/07/16 10:20:12;;;;;;;4.73;2.63;;;;;;;23.02;38.79;101667.47;5050165;28;20848;-70
2022/07/16 10:22:43;;;;;;;7.40;2.83;;;;;;;24.73;34.94;101653.31;5039364;28;20166;-71
2022/07/16 10:25:13;;;;;;;8.60;3.03;;;;;;;25.65;33.54;101656.19;5062588;28;20447;-69
2022/07/16 10:27:39;;;;;;;3.37;2.80;;;;;;;26.65;32.45;101652.09;5079171;28;20418;-70
2022/07/16 10:30:22;;;;;;;5.60;2.90;;;;;;;26.22;33.06;101660.16;5079351;28;20856;-70
2022/07/16 10:33:00;;;;;;;8.70;2.87;;;;;;;26.17;32.87;101663.97;5062735;28;20189;-70
2022/07/16 10:35:42;;;;;;;5.30;2.90;;;;;;;25.00;34.21;101661.25;5058925;28;20416;-70
2022/07/16 10:38:21;;;;;;;4.13;2.87;;;;;;;23.59;36.36;101683.63;5058882;28;20416;-70
2022/07/16 10:41:05;;;;;;;5.63;2.90;;;;;;;22.41;39.08;101692.06;5059060;28;20426;-72
2022/07/16 10:43:31;;;;;;;5.60;2.90;;;;;;;22.80;39.34;101699.94;5058909;28;20824;-69
2022/07/16 10:46:01;;;;;;;5.20;2.83;;;;;;;23.65;38.15;101694.06;5058456;28;20500;-69
2022/07/16 10:48:48;;;;;;;3.93;3.17;;;;;;;24.11;37.31;101699.78;5058877;28;20227;-70
2022/07/16 10:51:16;;;;;;;5.27;3.47;;;;;;;24.50;35.15;101700.25;5058318;28;20699;-68
2022/07/16 10:54:03;;;;;;;4.47;2.57;;;;;;;24.70;34.27;101701.44;5058523;28;20464;-69
2022/07/16 10:56:31;;;;;;;6.10;3.00;;;;;;;24.47;35.06;101697.72;5058878;28;20673;-68
2022/07/16 10:58:57;;;;;;;5.43;3.10;;;;;;;26.01;33.27;101693.06;5060571;28;20412;-76
2022/07/16 11:01:22;;;;;;;5.30;3.00;;;;;;;26.26;33.14;101698.31;5058515;28;20798;-72
2022/07/16 11:03:51;;;;;;;4.80;3.10;;;;;;;25.49;34.48;101690.63;5068763;28;20196;-70
2022/07/16 11:06:23;;;;;;;7.50;3.30;;;;;;;25.48;32.65;101689.75;5061480;28;20466;-70
2022/07/16 11:08:53;;;;;;;4.00;3.17;;;;;;;23.87;35.27;101699.63;5042183;28;20889;-72
2022/07/16 11:11:19;;;;;;;5.00;2.90;;;;;;;25.03;34.23;101703.84;5042801;28;20446;-70
2022/07/16 11:13:46;;;;;;;5.30;2.83;;;;;;;25.38;32.78;101704.38;5058246;28;20428;-73
2022/07/16 11:16:11;;;;;;;6.93;3.40;;;;;;;25.80;32.10;101700.97;5058676;28;20411;-70
2022/07/16 11:18:40;;;;;;;4.90;2.80;;;;;;;26.11;32.08;101694.47;5058464;28;20424;-72
2022/07/16 11:21:08;;;;;;;5.93;2.70;;;;;;;25.75;32.13;101700.31;5056725;28;20217;-70
2022/07/16 11:23:51;;;;;;;5.50;2.53;;;;;;;24.73;34.10;101703.13;5061116;28;20695;-69
2022/07/16 11:26:17;;;;;;;6.20;2.80;;;;;;;24.25;34.41;101702.88;5059113;28;20443;-67